sensor_id;sensor_type;location;lat;lon;timestamp;P1;durP1;ratioP1;P2;durP2;ratioP2
46210;SDS011;52144;48.040;-1.594;2023-06-14T00:00:54;12.00;;;7.10;;
46210;SDS011;52144;48.040;-1.594;2023-06-14T00:03:22;15.85;;;7.57;;
46210;SDS011;52144;48.040;-1.594;2023-06-14T00:05:51;11.38;;;6.10;;
46210;SDS011;52144;48.040;-1.594;2023-06-14T00:08:19;15.48;;;7.32;;
46210;SDS011;52144;48.040;-1.594;2023-06-14T00:10:48;10.95;;;7.07;;
46210;SDS011;52144;48.040;-1.594;2023-06-14T00:13:18;10.93;;;7.03;;
46210;SDS011;52144;48.040;-1.594;2023-06-14T00:15:46;14.77;;;7.05;;
46210;SDS011;52144;48.040;-1.594;2023-06-14T00:18:14;15.05;;;7.35;;
46210;SDS011;52144;48.040;-1.594;2023-06-14T00:20:42;15.18;;;8.43;;
46210;SDS011;52144;48.040;-1.594;2023-06-14T00:23:10;11.73;;;5.70;;
46210;SDS011;52144;48.040;-1.594;2023-06-14T00:25:38;12.13;;;7.28;;
46210;SDS011;52144;48.040;-1.594;2023-06-14T00:28:06;16.27;;;7.78;;
46210;SDS011;52144;48.040;-1.594;2023-06-14T00:30:35;18.55;;;8.00;;
46210;SDS011;52144;48.040;-1.594;2023-06-14T00:33:03;12.68;;;7.10;;
46210;SDS011;52144;48.040;-1.594;2023-06-14T00:35:31;19.60;;;9.95;;
46210;SDS011;52144;48.040;-1.594;2023-06-14T00:37:59;19.42;;;9.07;;
46210;SDS011;52144;48.040;-1.594;2023-06-14T00:40:27;18.50;;;8.32;;
46210;SDS011;52144;48.040;-1.594;2023-06-14T00:42:55;20.20;;;9.35;;
46210;SDS011;52144;48.040;-1.594;2023-06-14T00:45:23;18.45;;;9.55;;
46210;SDS011;52144;48.040;-1.594;2023-06-14T00:47:52;14.23;;;8.38;;
46210;SDS011;52144;48.040;-1.594;2023-06-14T00:50:21;18.45;;;9.45;;
46210;SDS011;52144;48.040;-1.594;2023-06-14T00:52:50;15.82;;;8.23;;
46210;SDS011;52144;48.040;-1.594;2023-06-14T00:55:18;20.40;;;8.45;;
46210;SDS011;52144;48.040;-1.594;2023-06-14T00:57:46;15.15;;;9.05;;
46210;SDS011;52144;48.040;-1.594;2023-06-14T01:00:15;20.85;;;8.43;;
46210;SDS011;52144;48.040;-1.594;2023-06-14T01:02:43;14.73;;;8.93;;
46210;SDS011;52144;48.040;-1.594;2023-06-14T01:05:13;15.55;;;7.68;;
46210;SDS011;52144;48.040;-1.594;2023-06-14T01:07:44;15.48;;;9.02;;
46210;SDS011;52144;48.040;-1.594;2023-06-14T01:10:31;14.63;;;8.73;;
46210;SDS011;52144;48.040;-1.594;2023-06-14T01:13:06;17.23;;;9.77;;
46210;SDS011;52144;48.040;-1.594;2023-06-14T01:18:06;18.05;;;9.55;;
46210;SDS011;52144;48.040;-1.594;2023-06-14T01:20:45;16.67;;;9.48;;
46210;SDS011;52144;48.040;-1.594;2023-06-14T01:23:17;17.77;;;9.27;;
46210;SDS011;52144;48.040;-1.594;2023-06-14T01:25:46;19.80;;;10.25;;
46210;SDS011;52144;48.040;-1.594;2023-06-14T01:28:19;21.27;;;11.63;;
46210;SDS011;52144;48.040;-1.594;2023-06-14T01:30:49;24.50;;;11.85;;
46210;SDS011;52144;48.040;-1.594;2023-06-14T01:33:20;17.98;;;10.88;;
46210;SDS011;52144;48.040;-1.594;2023-06-14T01:35:50;21.23;;;10.57;;
46210;SDS011;52144;48.040;-1.594;2023-06-14T01:38:21;19.33;;;9.32;;
46210;SDS011;52144;48.040;-1.594;2023-06-14T01:40:51;21.13;;;11.75;;
46210;SDS011;52144;48.040;-1.594;2023-06-14T01:43:21;25.05;;;10.70;;
46210;SDS011;52144;48.040;-1.594;2023-06-14T01:45:51;19.15;;;11.35;;
46210;SDS011;52144;48.040;-1.594;2023-06-14T01:48:21;15.50;;;8.70;;
46210;SDS011;52144;48.040;-1.594;2023-06-14T01:50:49;16.95;;;8.73;;
46210;SDS011;52144;48.040;-1.594;2023-06-14T01:53:17;13.27;;;8.68;;
46210;SDS011;52144;48.040;-1.594;2023-06-14T01:55:46;15.50;;;8.98;;
46210;SDS011;52144;48.040;-1.594;2023-06-14T01:58:15;18.85;;;9.73;;
46210;SDS011;52144;48.040;-1.594;2023-06-14T02:00:43;16.95;;;9.68;;
46210;SDS011;52144;48.040;-1.594;2023-06-14T02:03:11;19.75;;;9.30;;
46210;SDS011;52144;48.040;-1.594;2023-06-14T02:05:39;17.75;;;8.55;;
46210;SDS011;52144;48.040;-1.594;2023-06-14T02:08:08;17.17;;;9.57;;
46210;SDS011;52144;48.040;-1.594;2023-06-14T02:10:35;16.48;;;10.15;;
46210;SDS011;52144;48.040;-1.594;2023-06-14T02:13:04;18.52;;;8.20;;
46210;SDS011;52144;48.040;-1.594;2023-06-14T02:15:32;23.27;;;9.73;;
46210;SDS011;52144;48.040;-1.594;2023-06-14T02:18:02;16.38;;;8.73;;
46210;SDS011;52144;48.040;-1.594;2023-06-14T02:20:30;25.02;;;10.43;;
46210;SDS011;52144;48.040;-1.594;2023-06-14T02:22:58;27.35;;;10.88;;
46210;SDS011;52144;48.040;-1.594;2023-06-14T02:25:26;16.60;;;9.85;;
46210;SDS011;52144;48.040;-1.594;2023-06-14T02:27:54;30.25;;;12.07;;
46210;SDS011;52144;48.040;-1.594;2023-06-14T02:30:23;22.45;;;10.68;;
46210;SDS011;52144;48.040;-1.594;2023-06-14T02:32:51;21.80;;;11.35;;
46210;SDS011;52144;48.040;-1.594;2023-06-14T02:35:19;17.65;;;10.15;;
46210;SDS011;52144;48.040;-1.594;2023-06-14T02:37:50;17.23;;;9.63;;
46210;SDS011;52144;48.040;-1.594;2023-06-14T02:40:18;20.70;;;11.05;;
46210;SDS011;52144;48.040;-1.594;2023-06-14T02:42:46;19.80;;;12.30;;
46210;SDS011;52144;48.040;-1.594;2023-06-14T02:45:14;22.10;;;11.43;;
46210;SDS011;52144;48.040;-1.594;2023-06-14T02:47:44;20.75;;;10.35;;
46210;SDS011;52144;48.040;-1.594;2023-06-14T02:50:12;22.10;;;12.68;;
46210;SDS011;52144;48.040;-1.594;2023-06-14T02:52:41;25.77;;;12.98;;
46210;SDS011;52144;48.040;-1.594;2023-06-14T02:55:10;25.55;;;12.65;;
46210;SDS011;52144;48.040;-1.594;2023-06-14T02:57:38;19.80;;;11.23;;
46210;SDS011;52144;48.040;-1.594;2023-06-14T03:00:06;27.42;;;11.85;;
46210;SDS011;52144;48.040;-1.594;2023-06-14T03:02:39;22.73;;;11.27;;
46210;SDS011;52144;48.040;-1.594;2023-06-14T03:05:10;26.35;;;12.82;;
46210;SDS011;52144;48.040;-1.594;2023-06-14T03:07:39;23.70;;;13.70;;
46210;SDS011;52144;48.040;-1.594;2023-06-14T03:10:08;31.00;;;12.30;;
46210;SDS011;52144;48.040;-1.594;2023-06-14T03:12:36;21.50;;;11.85;;
46210;SDS011;52144;48.040;-1.594;2023-06-14T03:15:04;24.90;;;11.02;;
46210;SDS011;52144;48.040;-1.594;2023-06-14T03:17:32;24.00;;;12.50;;
46210;SDS011;52144;48.040;-1.594;2023-06-14T03:20:01;24.15;;;12.23;;
46210;SDS011;52144;48.040;-1.594;2023-06-14T03:22:31;25.27;;;12.38;;
46210;SDS011;52144;48.040;-1.594;2023-06-14T03:25:00;22.25;;;12.30;;
46210;SDS011;52144;48.040;-1.594;2023-06-14T03:27:30;20.00;;;12.25;;
46210;SDS011;52144;48.040;-1.594;2023-06-14T03:29:58;23.52;;;11.52;;
46210;SDS011;52144;48.040;-1.594;2023-06-14T03:32:27;24.98;;;13.52;;
46210;SDS011;52144;48.040;-1.594;2023-06-14T03:34:54;31.70;;;14.07;;
46210;SDS011;52144;48.040;-1.594;2023-06-14T03:37:22;29.88;;;14.88;;
46210;SDS011;52144;48.040;-1.594;2023-06-14T03:39:51;37.40;;;15.10;;
46210;SDS011;52144;48.040;-1.594;2023-06-14T03:42:19;28.65;;;14.05;;
46210;SDS011;52144;48.040;-1.594;2023-06-14T03:44:47;31.08;;;15.15;;
46210;SDS011;52144;48.040;-1.594;2023-06-14T03:47:14;26.65;;;14.38;;
46210;SDS011;52144;48.040;-1.594;2023-06-14T03:49:43;31.38;;;15.70;;
46210;SDS011;52144;48.040;-1.594;2023-06-14T03:52:11;25.88;;;14.63;;
46210;SDS011;52144;48.040;-1.594;2023-06-14T03:54:40;36.38;;;15.35;;
46210;SDS011;52144;48.040;-1.594;2023-06-14T03:57:30;25.02;;;14.50;;
46210;SDS011;52144;48.040;-1.594;2023-06-14T03:59:58;26.77;;;13.45;;
46210;SDS011;52144;48.040;-1.594;2023-06-14T04:02:26;24.08;;;11.77;;
46210;SDS011;52144;48.040;-1.594;2023-06-14T04:04:55;29.83;;;14.95;;
46210;SDS011;52144;48.040;-1.594;2023-06-14T04:07:23;25.13;;;12.75;;
46210;SDS011;52144;48.040;-1.594;2023-06-14T04:09:51;30.35;;;15.40;;
46210;SDS011;52144;48.040;-1.594;2023-06-14T04:12:19;33.58;;;13.10;;
46210;SDS011;52144;48.040;-1.594;2023-06-14T04:14:48;23.95;;;13.00;;
46210;SDS011;52144;48.040;-1.594;2023-06-14T04:17:16;23.95;;;11.55;;
46210;SDS011;52144;48.040;-1.594;2023-06-14T04:19:43;22.17;;;12.98;;
46210;SDS011;52144;48.040;-1.594;2023-06-14T04:22:11;23.80;;;12.25;;
46210;SDS011;52144;48.040;-1.594;2023-06-14T04:24:39;24.05;;;14.15;;
46210;SDS011;52144;48.040;-1.594;2023-06-14T04:27:08;21.27;;;13.00;;
46210;SDS011;52144;48.040;-1.594;2023-06-14T04:29:36;24.58;;;12.40;;
46210;SDS011;52144;48.040;-1.594;2023-06-14T04:32:07;30.25;;;14.00;;
46210;SDS011;52144;48.040;-1.594;2023-06-14T04:34:36;21.02;;;11.80;;
46210;SDS011;52144;48.040;-1.594;2023-06-14T04:37:06;26.92;;;13.52;;
46210;SDS011;52144;48.040;-1.594;2023-06-14T04:39:36;28.05;;;13.73;;
46210;SDS011;52144;48.040;-1.594;2023-06-14T04:42:04;25.50;;;13.32;;
46210;SDS011;52144;48.040;-1.594;2023-06-14T04:44:33;26.10;;;13.38;;
46210;SDS011;52144;48.040;-1.594;2023-06-14T04:47:02;26.70;;;13.13;;
46210;SDS011;52144;48.040;-1.594;2023-06-14T04:49:31;27.48;;;15.32;;
46210;SDS011;52144;48.040;-1.594;2023-06-14T04:52:00;25.77;;;11.88;;
46210;SDS011;52144;48.040;-1.594;2023-06-14T04:54:28;23.20;;;12.45;;
46210;SDS011;52144;48.040;-1.594;2023-06-14T04:56:57;27.27;;;12.02;;
46210;SDS011;52144;48.040;-1.594;2023-06-14T04:59:25;31.25;;;12.05;;
46210;SDS011;52144;48.040;-1.594;2023-06-14T05:01:53;23.70;;;12.50;;
46210;SDS011;52144;48.040;-1.594;2023-06-14T05:04:23;24.67;;;13.10;;
46210;SDS011;52144;48.040;-1.594;2023-06-14T05:06:54;23.05;;;13.48;;
46210;SDS011;52144;48.040;-1.594;2023-06-14T05:09:21;32.65;;;14.30;;
46210;SDS011;52144;48.040;-1.594;2023-06-14T05:11:49;28.45;;;14.68;;
46210;SDS011;52144;48.040;-1.594;2023-06-14T05:14:17;25.65;;;12.23;;
46210;SDS011;52144;48.040;-1.594;2023-06-14T05:16:45;27.77;;;11.98;;
46210;SDS011;52144;48.040;-1.594;2023-06-14T05:19:15;22.23;;;11.27;;
46210;SDS011;52144;48.040;-1.594;2023-06-14T05:21:44;33.55;;;14.40;;
46210;SDS011;52144;48.040;-1.594;2023-06-14T05:24:14;29.30;;;13.75;;
46210;SDS011;52144;48.040;-1.594;2023-06-14T05:26:43;25.80;;;14.00;;
46210;SDS011;52144;48.040;-1.594;2023-06-14T05:29:11;26.33;;;14.02;;
46210;SDS011;52144;48.040;-1.594;2023-06-14T05:31:39;26.23;;;13.98;;
46210;SDS011;52144;48.040;-1.594;2023-06-14T05:34:07;29.92;;;13.98;;
46210;SDS011;52144;48.040;-1.594;2023-06-14T05:36:35;26.30;;;12.07;;
46210;SDS011;52144;48.040;-1.594;2023-06-14T05:39:03;34.35;;;14.55;;
46210;SDS011;52144;48.040;-1.594;2023-06-14T05:41:33;30.80;;;13.30;;
46210;SDS011;52144;48.040;-1.594;2023-06-14T05:44:01;32.50;;;15.40;;
46210;SDS011;52144;48.040;-1.594;2023-06-14T05:46:29;28.33;;;13.23;;
46210;SDS011;52144;48.040;-1.594;2023-06-14T05:48:57;23.27;;;13.43;;
46210;SDS011;52144;48.040;-1.594;2023-06-14T05:51:25;25.25;;;11.65;;
46210;SDS011;52144;48.040;-1.594;2023-06-14T05:53:53;26.80;;;14.07;;
46210;SDS011;52144;48.040;-1.594;2023-06-14T05:56:21;20.35;;;11.10;;
46210;SDS011;52144;48.040;-1.594;2023-06-14T05:58:50;24.60;;;12.00;;
46210;SDS011;52144;48.040;-1.594;2023-06-14T06:01:18;25.25;;;13.40;;
46210;SDS011;52144;48.040;-1.594;2023-06-14T06:03:46;24.80;;;13.20;;
46210;SDS011;52144;48.040;-1.594;2023-06-14T06:06:14;30.20;;;13.32;;
46210;SDS011;52144;48.040;-1.594;2023-06-14T06:08:42;33.75;;;15.38;;
46210;SDS011;52144;48.040;-1.594;2023-06-14T06:11:10;23.75;;;12.68;;
46210;SDS011;52144;48.040;-1.594;2023-06-14T06:13:38;23.75;;;12.30;;
46210;SDS011;52144;48.040;-1.594;2023-06-14T06:16:08;27.67;;;13.23;;
46210;SDS011;52144;48.040;-1.594;2023-06-14T06:18:36;23.70;;;11.50;;
46210;SDS011;52144;48.040;-1.594;2023-06-14T06:21:05;21.45;;;10.55;;
46210;SDS011;52144;48.040;-1.594;2023-06-14T06:23:33;20.55;;;11.35;;
46210;SDS011;52144;48.040;-1.594;2023-06-14T06:26:01;28.40;;;13.50;;
46210;SDS011;52144;48.040;-1.594;2023-06-14T06:28:29;23.77;;;13.80;;
46210;SDS011;52144;48.040;-1.594;2023-06-14T06:30:57;22.15;;;12.18;;
46210;SDS011;52144;48.040;-1.594;2023-06-14T06:33:30;28.80;;;12.48;;
46210;SDS011;52144;48.040;-1.594;2023-06-14T06:35:58;31.10;;;14.23;;
46210;SDS011;52144;48.040;-1.594;2023-06-14T06:38:26;19.55;;;10.30;;
46210;SDS011;52144;48.040;-1.594;2023-06-14T06:40:53;27.45;;;14.55;;
46210;SDS011;52144;48.040;-1.594;2023-06-14T06:43:22;23.23;;;12.23;;
46210;SDS011;52144;48.040;-1.594;2023-06-14T06:45:50;23.52;;;11.40;;
46210;SDS011;52144;48.040;-1.594;2023-06-14T06:48:18;20.02;;;10.02;;
46210;SDS011;52144;48.040;-1.594;2023-06-14T06:50:47;19.98;;;9.38;;
46210;SDS011;52144;48.040;-1.594;2023-06-14T06:53:15;22.98;;;10.98;;
46210;SDS011;52144;48.040;-1.594;2023-06-14T06:56:00;19.35;;;10.50;;
46210;SDS011;52144;48.040;-1.594;2023-06-14T06:58:28;15.00;;;8.65;;
46210;SDS011;52144;48.040;-1.594;2023-06-14T07:00:56;19.77;;;9.65;;
46210;SDS011;52144;48.040;-1.594;2023-06-14T07:03:23;17.98;;;10.60;;
46210;SDS011;52144;48.040;-1.594;2023-06-14T07:05:53;24.77;;;10.95;;
46210;SDS011;52144;48.040;-1.594;2023-06-14T07:08:20;24.77;;;9.95;;
46210;SDS011;52144;48.040;-1.594;2023-06-14T07:10:48;30.42;;;10.50;;
46210;SDS011;52144;48.040;-1.594;2023-06-14T07:13:16;18.67;;;10.32;;
46210;SDS011;52144;48.040;-1.594;2023-06-14T07:15:44;20.08;;;10.98;;
46210;SDS011;52144;48.040;-1.594;2023-06-14T07:18:12;20.58;;;9.77;;
46210;SDS011;52144;48.040;-1.594;2023-06-14T07:20:42;22.33;;;9.70;;
46210;SDS011;52144;48.040;-1.594;2023-06-14T07:23:11;11.50;;;7.20;;
46210;SDS011;52144;48.040;-1.594;2023-06-14T07:25:39;13.05;;;7.00;;
46210;SDS011;52144;48.040;-1.594;2023-06-14T07:28:06;15.45;;;7.95;;
46210;SDS011;52144;48.040;-1.594;2023-06-14T07:30:35;18.98;;;9.18;;
46210;SDS011;52144;48.040;-1.594;2023-06-14T07:33:02;14.07;;;7.10;;
46210;SDS011;52144;48.040;-1.594;2023-06-14T07:35:30;15.00;;;8.90;;
46210;SDS011;52144;48.040;-1.594;2023-06-14T07:37:58;21.77;;;9.70;;
46210;SDS011;52144;48.040;-1.594;2023-06-14T07:40:27;24.08;;;8.48;;
46210;SDS011;52144;48.040;-1.594;2023-06-14T07:42:55;14.63;;;8.95;;
46210;SDS011;52144;48.040;-1.594;2023-06-14T07:45:23;11.45;;;7.53;;
46210;SDS011;52144;48.040;-1.594;2023-06-14T07:47:51;13.57;;;7.00;;
46210;SDS011;52144;48.040;-1.594;2023-06-14T07:50:19;13.07;;;7.15;;
46210;SDS011;52144;48.040;-1.594;2023-06-14T07:52:47;12.80;;;6.85;;
46210;SDS011;52144;48.040;-1.594;2023-06-14T07:55:15;16.08;;;8.02;;
46210;SDS011;52144;48.040;-1.594;2023-06-14T07:57:44;13.40;;;7.85;;
46210;SDS011;52144;48.040;-1.594;2023-06-14T08:00:13;10.32;;;6.68;;
46210;SDS011;52144;48.040;-1.594;2023-06-14T08:02:41;14.10;;;7.13;;
46210;SDS011;52144;48.040;-1.594;2023-06-14T08:05:10;18.67;;;7.85;;
46210;SDS011;52144;48.040;-1.594;2023-06-14T08:07:38;8.85;;;5.85;;
46210;SDS011;52144;48.040;-1.594;2023-06-14T08:10:07;15.85;;;6.00;;
46210;SDS011;52144;48.040;-1.594;2023-06-14T08:12:35;13.27;;;5.93;;
46210;SDS011;52144;48.040;-1.594;2023-06-14T08:15:06;13.52;;;5.95;;
46210;SDS011;52144;48.040;-1.594;2023-06-14T08:17:40;17.02;;;6.32;;
46210;SDS011;52144;48.040;-1.594;2023-06-14T08:20:08;8.20;;;5.53;;
46210;SDS011;52144;48.040;-1.594;2023-06-14T08:22:37;14.93;;;6.78;;
46210;SDS011;52144;48.040;-1.594;2023-06-14T08:25:07;11.85;;;6.57;;
46210;SDS011;52144;48.040;-1.594;2023-06-14T08:27:36;12.05;;;5.07;;
46210;SDS011;52144;48.040;-1.594;2023-06-14T08:30:04;10.13;;;5.47;;
46210;SDS011;52144;48.040;-1.594;2023-06-14T08:32:35;8.50;;;5.13;;
46210;SDS011;52144;48.040;-1.594;2023-06-14T08:35:03;10.00;;;6.38;;
46210;SDS011;52144;48.040;-1.594;2023-06-14T08:37:32;10.82;;;7.25;;
46210;SDS011;52144;48.040;-1.594;2023-06-14T08:40:00;12.55;;;6.50;;
46210;SDS011;52144;48.040;-1.594;2023-06-14T08:42:32;11.82;;;5.20;;
46210;SDS011;52144;48.040;-1.594;2023-06-14T08:45:02;9.88;;;6.25;;
46210;SDS011;52144;48.040;-1.594;2023-06-14T08:47:32;16.50;;;6.70;;
46210;SDS011;52144;48.040;-1.594;2023-06-14T08:50:07;17.67;;;7.35;;
46210;SDS011;52144;48.040;-1.594;2023-06-14T08:52:54;16.48;;;6.28;;
46210;SDS011;52144;48.040;-1.594;2023-06-14T08:55:24;6.57;;;5.22;;
46210;SDS011;52144;48.040;-1.594;2023-06-14T08:57:53;8.95;;;4.68;;
46210;SDS011;52144;48.040;-1.594;2023-06-14T09:00:22;13.43;;;6.50;;
46210;SDS011;52144;48.040;-1.594;2023-06-14T09:02:52;11.45;;;6.10;;
46210;SDS011;52144;48.040;-1.594;2023-06-14T09:05:24;7.65;;;4.95;;
46210;SDS011;52144;48.040;-1.594;2023-06-14T09:07:53;8.82;;;5.18;;
46210;SDS011;52144;48.040;-1.594;2023-06-14T09:10:23;14.93;;;6.03;;
46210;SDS011;52144;48.040;-1.594;2023-06-14T09:12:55;12.88;;;5.35;;
46210;SDS011;52144;48.040;-1.594;2023-06-14T09:15:23;13.15;;;5.50;;
46210;SDS011;52144;48.040;-1.594;2023-06-14T09:17:51;8.55;;;5.35;;
46210;SDS011;52144;48.040;-1.594;2023-06-14T09:20:20;7.93;;;5.35;;
46210;SDS011;52144;48.040;-1.594;2023-06-14T09:22:48;8.93;;;4.60;;
46210;SDS011;52144;48.040;-1.594;2023-06-14T09:25:16;7.30;;;5.00;;
46210;SDS011;52144;48.040;-1.594;2023-06-14T09:28:04;8.65;;;4.88;;
46210;SDS011;52144;48.040;-1.594;2023-06-14T09:30:35;11.38;;;5.38;;
46210;SDS011;52144;48.040;-1.594;2023-06-14T09:33:04;9.88;;;5.63;;
46210;SDS011;52144;48.040;-1.594;2023-06-14T09:35:32;8.15;;;5.82;;
46210;SDS011;52144;48.040;-1.594;2023-06-14T09:38:00;7.72;;;4.97;;
46210;SDS011;52144;48.040;-1.594;2023-06-14T09:40:28;11.38;;;5.68;;
46210;SDS011;52144;48.040;-1.594;2023-06-14T09:43:02;9.13;;;4.72;;
46210;SDS011;52144;48.040;-1.594;2023-06-14T09:45:34;7.97;;;4.68;;
46210;SDS011;52144;48.040;-1.594;2023-06-14T09:48:03;10.43;;;4.68;;
46210;SDS011;52144;48.040;-1.594;2023-06-14T09:50:34;8.95;;;5.03;;
46210;SDS011;52144;48.040;-1.594;2023-06-14T09:53:02;8.30;;;4.90;;
46210;SDS011;52144;48.040;-1.594;2023-06-14T09:55:34;8.85;;;4.80;;
46210;SDS011;52144;48.040;-1.594;2023-06-14T09:58:04;9.50;;;5.10;;
46210;SDS011;52144;48.040;-1.594;2023-06-14T10:00:34;18.35;;;7.07;;
46210;SDS011;52144;48.040;-1.594;2023-06-14T10:03:09;7.93;;;5.35;;
46210;SDS011;52144;48.040;-1.594;2023-06-14T10:05:41;9.15;;;4.25;;
46210;SDS011;52144;48.040;-1.594;2023-06-14T10:08:13;6.93;;;4.80;;
46210;SDS011;52144;48.040;-1.594;2023-06-14T10:10:43;7.00;;;5.38;;
46210;SDS011;52144;48.040;-1.594;2023-06-14T10:13:11;9.07;;;5.10;;
46210;SDS011;52144;48.040;-1.594;2023-06-14T10:15:41;7.53;;;5.10;;
46210;SDS011;52144;48.040;-1.594;2023-06-14T10:18:22;8.90;;;5.47;;
46210;SDS011;52144;48.040;-1.594;2023-06-14T10:20:58;9.25;;;5.10;;
46210;SDS011;52144;48.040;-1.594;2023-06-14T10:23:35;10.45;;;6.03;;
46210;SDS011;52144;48.040;-1.594;2023-06-14T10:26:08;10.30;;;4.72;;
46210;SDS011;52144;48.040;-1.594;2023-06-14T10:28:37;11.93;;;4.97;;
46210;SDS011;52144;48.040;-1.594;2023-06-14T10:31:05;9.63;;;5.30;;
46210;SDS011;52144;48.040;-1.594;2023-06-14T10:33:36;8.07;;;5.55;;
46210;SDS011;52144;48.040;-1.594;2023-06-14T10:36:10;11.25;;;5.13;;
46210;SDS011;52144;48.040;-1.594;2023-06-14T10:41:29;8.43;;;5.13;;
46210;SDS011;52144;48.040;-1.594;2023-06-14T10:46:59;6.97;;;5.00;;
46210;SDS011;52144;48.040;-1.594;2023-06-14T10:49:37;6.05;;;4.40;;
46210;SDS011;52144;48.040;-1.594;2023-06-14T10:52:08;7.10;;;5.05;;
46210;SDS011;52144;48.040;-1.594;2023-06-14T10:54:55;7.85;;;4.55;;
46210;SDS011;52144;48.040;-1.594;2023-06-14T10:57:36;6.07;;;4.25;;
46210;SDS011;52144;48.040;-1.594;2023-06-14T11:00:18;12.88;;;4.97;;
46210;SDS011;52144;48.040;-1.594;2023-06-14T11:02:56;6.67;;;4.87;;
46210;SDS011;52144;48.040;-1.594;2023-06-14T11:08:39;9.88;;;4.78;;
46210;SDS011;52144;48.040;-1.594;2023-06-14T11:11:19;7.10;;;4.75;;
46210;SDS011;52144;48.040;-1.594;2023-06-14T11:13:50;7.82;;;4.70;;
46210;SDS011;52144;48.040;-1.594;2023-06-14T11:16:21;6.30;;;4.65;;
46210;SDS011;52144;48.040;-1.594;2023-06-14T11:18:53;9.50;;;4.63;;
46210;SDS011;52144;48.040;-1.594;2023-06-14T11:21:23;5.43;;;3.70;;
46210;SDS011;52144;48.040;-1.594;2023-06-14T11:23:56;10.35;;;4.53;;
46210;SDS011;52144;48.040;-1.594;2023-06-14T11:26:24;7.25;;;4.65;;
46210;SDS011;52144;48.040;-1.594;2023-06-14T11:28:57;4.13;;;3.72;;
46210;SDS011;52144;48.040;-1.594;2023-06-14T11:31:26;11.68;;;5.07;;
46210;SDS011;52144;48.040;-1.594;2023-06-14T11:33:54;8.38;;;4.75;;
46210;SDS011;52144;48.040;-1.594;2023-06-14T11:36:27;5.95;;;4.75;;
46210;SDS011;52144;48.040;-1.594;2023-06-14T11:39:00;5.70;;;4.55;;
46210;SDS011;52144;48.040;-1.594;2023-06-14T11:41:33;8.63;;;3.90;;
46210;SDS011;52144;48.040;-1.594;2023-06-14T11:44:02;4.68;;;4.22;;
46210;SDS011;52144;48.040;-1.594;2023-06-14T11:46:30;9.10;;;4.97;;
46210;SDS011;52144;48.040;-1.594;2023-06-14T11:48:58;6.70;;;4.47;;
46210;SDS011;52144;48.040;-1.594;2023-06-14T11:51:30;5.38;;;4.47;;
46210;SDS011;52144;48.040;-1.594;2023-06-14T11:53:59;8.95;;;4.95;;
46210;SDS011;52144;48.040;-1.594;2023-06-14T11:56:29;7.22;;;4.15;;
46210;SDS011;52144;48.040;-1.594;2023-06-14T11:58:58;5.80;;;4.68;;
46210;SDS011;52144;48.040;-1.594;2023-06-14T12:01:26;6.05;;;4.78;;
46210;SDS011;52144;48.040;-1.594;2023-06-14T12:03:54;7.10;;;4.68;;
46210;SDS011;52144;48.040;-1.594;2023-06-14T12:06:26;6.32;;;4.38;;
46210;SDS011;52144;48.040;-1.594;2023-06-14T12:09:02;9.45;;;4.13;;
46210;SDS011;52144;48.040;-1.594;2023-06-14T12:11:34;7.88;;;3.75;;
46210;SDS011;52144;48.040;-1.594;2023-06-14T12:14:03;9.05;;;4.35;;
46210;SDS011;52144;48.040;-1.594;2023-06-14T12:16:32;8.60;;;4.53;;
46210;SDS011;52144;48.040;-1.594;2023-06-14T12:19:08;6.75;;;5.10;;
46210;SDS011;52144;48.040;-1.594;2023-06-14T12:21:37;5.40;;;4.47;;
46210;SDS011;52144;48.040;-1.594;2023-06-14T12:24:08;8.18;;;4.22;;
46210;SDS011;52144;48.040;-1.594;2023-06-14T12:26:39;5.13;;;4.20;;
46210;SDS011;52144;48.040;-1.594;2023-06-14T12:29:08;6.28;;;3.92;;
46210;SDS011;52144;48.040;-1.594;2023-06-14T12:31:36;6.95;;;4.57;;
46210;SDS011;52144;48.040;-1.594;2023-06-14T12:34:05;8.02;;;5.53;;
46210;SDS011;52144;48.040;-1.594;2023-06-14T12:36:33;6.18;;;4.43;;
46210;SDS011;52144;48.040;-1.594;2023-06-14T12:39:07;6.38;;;4.43;;
46210;SDS011;52144;48.040;-1.594;2023-06-14T12:41:35;11.30;;;5.32;;
46210;SDS011;52144;48.040;-1.594;2023-06-14T12:44:04;8.05;;;4.45;;
46210;SDS011;52144;48.040;-1.594;2023-06-14T12:46:31;8.43;;;4.50;;
46210;SDS011;52144;48.040;-1.594;2023-06-14T12:49:00;10.15;;;4.88;;
46210;SDS011;52144;48.040;-1.594;2023-06-14T12:51:28;7.60;;;4.40;;
46210;SDS011;52144;48.040;-1.594;2023-06-14T12:53:56;5.07;;;4.07;;
46210;SDS011;52144;48.040;-1.594;2023-06-14T12:56:25;5.88;;;4.28;;
46210;SDS011;52144;48.040;-1.594;2023-06-14T12:58:53;10.32;;;4.93;;
46210;SDS011;52144;48.040;-1.594;2023-06-14T13:01:21;6.50;;;4.28;;
46210;SDS011;52144;48.040;-1.594;2023-06-14T13:03:49;11.02;;;5.03;;
46210;SDS011;52144;48.040;-1.594;2023-06-14T13:06:18;5.63;;;4.10;;
46210;SDS011;52144;48.040;-1.594;2023-06-14T13:08:46;5.20;;;4.28;;
46210;SDS011;52144;48.040;-1.594;2023-06-14T13:11:14;8.60;;;4.93;;
46210;SDS011;52144;48.040;-1.594;2023-06-14T13:13:43;6.82;;;4.78;;
46210;SDS011;52144;48.040;-1.594;2023-06-14T13:16:11;5.55;;;4.00;;
46210;SDS011;52144;48.040;-1.594;2023-06-14T13:18:40;6.95;;;4.53;;
46210;SDS011;52144;48.040;-1.594;2023-06-14T13:21:08;7.13;;;4.95;;
46210;SDS011;52144;48.040;-1.594;2023-06-14T13:23:36;6.78;;;4.25;;
46210;SDS011;52144;48.040;-1.594;2023-06-14T13:26:04;5.88;;;3.70;;
46210;SDS011;52144;48.040;-1.594;2023-06-14T13:28:32;7.55;;;4.18;;
46210;SDS011;52144;48.040;-1.594;2023-06-14T13:31:03;9.80;;;4.43;;
46210;SDS011;52144;48.040;-1.594;2023-06-14T13:33:31;8.70;;;5.13;;
46210;SDS011;52144;48.040;-1.594;2023-06-14T13:35:59;7.80;;;4.38;;
46210;SDS011;52144;48.040;-1.594;2023-06-14T13:38:27;7.32;;;4.10;;
46210;SDS011;52144;48.040;-1.594;2023-06-14T13:40:54;7.22;;;4.45;;
46210;SDS011;52144;48.040;-1.594;2023-06-14T13:43:22;8.10;;;3.80;;
46210;SDS011;52144;48.040;-1.594;2023-06-14T13:45:50;10.02;;;5.22;;
46210;SDS011;52144;48.040;-1.594;2023-06-14T13:48:19;5.55;;;3.80;;
46210;SDS011;52144;48.040;-1.594;2023-06-14T13:50:47;8.35;;;4.28;;
46210;SDS011;52144;48.040;-1.594;2023-06-14T13:53:15;5.38;;;3.83;;
46210;SDS011;52144;48.040;-1.594;2023-06-14T13:55:42;8.52;;;4.78;;
46210;SDS011;52144;48.040;-1.594;2023-06-14T13:58:10;4.70;;;4.00;;
46210;SDS011;52144;48.040;-1.594;2023-06-14T14:00:38;6.75;;;4.53;;
46210;SDS011;52144;48.040;-1.594;2023-06-14T14:03:06;9.55;;;4.45;;
46210;SDS011;52144;48.040;-1.594;2023-06-14T14:05:36;6.38;;;3.67;;
46210;SDS011;52144;48.040;-1.594;2023-06-14T14:08:04;6.55;;;4.38;;
46210;SDS011;52144;48.040;-1.594;2023-06-14T14:10:32;4.43;;;3.17;;
46210;SDS011;52144;48.040;-1.594;2023-06-14T14:13:00;7.00;;;3.60;;
46210;SDS011;52144;48.040;-1.594;2023-06-14T14:15:28;8.90;;;4.72;;
46210;SDS011;52144;48.040;-1.594;2023-06-14T14:17:56;6.25;;;4.35;;
46210;SDS011;52144;48.040;-1.594;2023-06-14T14:20:24;7.00;;;3.83;;
46210;SDS011;52144;48.040;-1.594;2023-06-14T14:22:53;7.35;;;4.15;;
46210;SDS011;52144;48.040;-1.594;2023-06-14T14:25:22;3.88;;;3.42;;
46210;SDS011;52144;48.040;-1.594;2023-06-14T14:27:50;4.50;;;4.03;;
46210;SDS011;52144;48.040;-1.594;2023-06-14T14:30:17;7.82;;;5.18;;
46210;SDS011;52144;48.040;-1.594;2023-06-14T14:32:49;10.18;;;4.93;;
46210;SDS011;52144;48.040;-1.594;2023-06-14T14:35:19;9.65;;;3.92;;
46210;SDS011;52144;48.040;-1.594;2023-06-14T14:37:50;6.05;;;3.80;;
46210;SDS011;52144;48.040;-1.594;2023-06-14T14:40:19;10.55;;;5.45;;
46210;SDS011;52144;48.040;-1.594;2023-06-14T14:42:47;7.38;;;4.20;;
46210;SDS011;52144;48.040;-1.594;2023-06-14T14:45:15;6.80;;;4.20;;